Time;durP1;ratioP1;P1;durP2;ratioP2;P2;SDS_P1;SDS_P2;PMS_P1;PMS_P2;Temp;Humidity;BMP_temperature;BMP_pressure;BME280_temperature;BME280_humidity;BME280_pressure;Samples;Min_cycle;Max_cycle;Signal;HPM_P1;HPM_P2
2023/05/10 00:02:50;;;;;;;3.00;1.05;;;;;;;13.00;100.00;99064.09;12222113;19;20006;-86
2023/05/10 00:06:52;;;;;;;2.10;0.75;;;;;;;12.94;100.00;99068.81;12217223;19;20474;-86
2023/05/10 00:10:54;;;;;;;0.97;0.60;;;;;;;12.95;100.00;99075.19;12195422;19;20081;-86
2023/05/10 00:14:55;;;;;;;5.75;0.80;;;;;;;12.98;100.00;99067.13;12216693;19;20291;-86
2023/05/10 00:18:57;;;;;;;1.63;0.80;;;;;;;12.99;100.00;99070.72;12218817;19;20014;-86
2023/05/10 00:23:02;;;;;;;3.33;0.90;;;;;;;13.02;100.00;99072.09;12194864;19;20908;-87
2023/05/10 00:32:23;;;;;;;6.15;1.90;;;;;;;13.07;100.00;99075.66;12214092;19;20021;-86
2023/05/10 00:47:46;;;;;;;5.28;2.55;;;;;;;13.19;100.00;99084.44;12187620;19;20025;-87
2023/05/10 00:52:04;;;;;;;6.25;2.20;;;;;;;13.22;100.00;99091.38;12211390;19;20007;-86
2023/05/10 00:56:06;;;;;;;3.63;2.03;;;;;;;13.20;100.00;99086.09;12189884;19;20014;-86
2023/05/10 01:00:11;;;;;;;6.75;2.20;;;;;;;13.16;100.00;99089.72;12215186;19;20507;-85
2023/05/10 01:04:25;;;;;;;4.93;2.28;;;;;;;13.13;100.00;99082.00;12214443;19;20351;-86
2023/05/10 01:08:47;;;;;;;4.32;2.25;;;;;;;13.12;100.00;99086.72;12111276;19;2004453;-86
2023/05/10 01:12:59;;;;;;;8.95;2.90;;;;;;;13.11;100.00;99082.28;12212651;19;20086;-86
2023/05/10 01:17:25;;;;;;;5.68;2.58;;;;;;;13.07;100.00;99083.16;12189755;19;20026;-86
2023/05/10 01:21:50;;;;;;;8.32;3.25;;;;;;;13.06;100.00;99085.09;12213768;19;20010;-86
2023/05/10 01:26:54;;;;;;;6.75;3.15;;;;;;;13.03;100.00;99088.44;12192146;19;20014;-86
2023/05/10 01:31:08;;;;;;;7.53;2.70;;;;;;;13.04;100.00;99098.38;12213285;19;20034;-85
2023/05/10 01:35:22;;;;;;;7.18;3.00;;;;;;;13.00;100.00;99092.59;12189336;19;20035;-84
2023/05/10 01:39:28;;;;;;;5.15;3.17;;;;;;;12.95;100.00;99100.06;12212088;19;20010;-84
2023/05/10 01:43:39;;;;;;;9.18;3.30;;;;;;;12.95;100.00;99102.84;12189120;19;20010;-84
2023/05/10 01:47:50;;;;;;;7.60;3.53;;;;;;;12.96;100.00;99107.25;12211017;19;20486;-85
2023/05/10 01:51:56;;;;;;;7.15;3.85;;;;;;;12.93;100.00;99113.34;12209297;19;20064;-84
2023/05/10 01:56:01;;;;;;;10.05;4.03;;;;;;;12.88;100.00;99099.53;12188316;19;20014;-85
2023/05/10 02:00:04;;;;;;;6.82;3.83;;;;;;;12.89;100.00;99113.09;12207190;19;20467;-85
2023/05/10 02:04:17;;;;;;;9.75;4.22;;;;;;;12.86;100.00;99112.81;12212616;19;20598;-86
2023/05/10 02:08:21;;;;;;;8.68;3.75;;;;;;;12.86;100.00;99115.59;12189928;19;20010;-86
2023/05/10 02:12:24;;;;;;;7.80;3.85;;;;;;;12.83;100.00;99116.16;12208724;19;20534;-86
2023/05/10 02:16:30;;;;;;;9.10;3.97;;;;;;;12.81;100.00;99115.59;12191052;19;20034;-85
2023/05/10 02:20:34;;;;;;;9.50;4.32;;;;;;;12.78;100.00;99122.50;12209996;19;20384;-85
2023/05/10 02:24:37;;;;;;;;;;;;;;;12.77;100.00;99127.22;12206850;19;20026;-85
2023/05/10 02:28:40;;;;;;;11.82;4.68;;;;;;;12.77;100.00;99134.69;12189268;19;19945;-85
2023/05/10 02:32:42;;;;;;;;;;;;;;;12.74;100.00;99140.78;12211644;19;20011;-85
2023/05/10 02:36:45;;;;;;;7.93;4.38;;;;;;;12.71;100.00;99131.09;12209989;19;19914;-84
2023/05/10 02:40:48;;;;;;;8.02;3.95;;;;;;;12.72;100.00;99129.16;12185883;19;20085;-85
2023/05/10 02:44:54;;;;;;;11.30;4.35;;;;;;;12.76;100.00;99136.63;12202647;19;20010;-84
2023/05/10 02:48:56;;;;;;;9.52;4.22;;;;;;;12.78;100.00;99128.88;12206351;19;20349;-87
2023/05/10 02:53:09;;;;;;;9.73;4.45;;;;;;;12.80;100.00;99133.31;12183691;19;20034;-85
2023/05/10 02:57:19;;;;;;;9.60;4.72;;;;;;;12.77;100.00;99127.22;12206020;19;20014;-85
2023/05/10 03:01:20;;;;;;;9.45;4.93;;;;;;;12.75;100.00;99134.97;12192345;19;20514;-85
2023/05/10 03:05:23;;;;;;;10.17;4.90;;;;;;;12.77;100.00;99131.94;12217814;19;20034;-85
2023/05/10 03:09:34;;;;;;;9.13;4.78;;;;;;;12.77;100.00;99127.22;12217030;19;20275;-86
2023/05/10 03:13:43;;;;;;;8.48;5.20;;;;;;;12.74;100.00;99132.50;12196028;19;20019;-86
2023/05/10 03:18:00;;;;;;;9.13;4.70;;;;;;;12.72;100.00;99135.53;12217892;19;20558;-86
2023/05/10 03:22:07;;;;;;;8.15;4.30;;;;;;;12.70;100.00;99137.75;12214128;19;20007;-85
2023/05/10 03:26:23;;;;;;;10.70;5.13;;;;;;;12.67;100.00;99148.53;12195986;19;20502;-85
2023/05/10 03:30:27;;;;;;;8.27;5.05;;;;;;;12.61;100.00;99135.81;12219090;19;20011;-85
2023/05/10 03:34:31;;;;;;;10.27;4.85;;;;;;;12.62;100.00;99146.63;12195857;19;20032;-85
2023/05/10 03:38:33;;;;;;;10.30;5.28;;;;;;;12.63;100.00;99142.72;12220550;19;20002;-85
2023/05/10 03:42:35;;;;;;;12.55;4.80;;;;;;;12.62;100.00;99146.63;12216725;19;20019;-85
2023/05/10 03:46:37;;;;;;;11.73;4.30;;;;;;;12.60;100.00;99143.28;12195332;19;20026;-85
2023/05/10 03:50:39;;;;;;;7.50;4.53;;;;;;;12.62;100.00;99149.38;12216390;19;20372;-85
2023/05/10 03:54:41;;;;;;;11.17;4.63;;;;;;;12.62;100.00;99141.09;12216568;19;20408;-85
2023/05/10 03:58:43;;;;;;;7.28;4.10;;;;;;;12.56;100.00;99144.97;12193180;19;20263;-86
2023/05/10 04:02:45;;;;;;;8.80;4.20;;;;;;;12.58;100.00;99150.19;12214647;19;20524;-85
2023/05/10 04:06:52;;;;;;;7.90;4.45;;;;;;;12.61;100.00;99146.88;12215039;19;20481;-86
2023/05/10 04:11:14;;;;;;;9.45;4.60;;;;;;;12.65;100.00;99136.94;12204256;19;20030;-86
2023/05/10 04:16:04;;;;;;;9.88;5.20;;;;;;;12.72;100.00;99148.50;12214823;19;20508;-87
2023/05/10 04:20:06;;;;;;;8.30;4.70;;;;;;;12.76;100.00;99142.16;12190916;19;20018;-86
2023/05/10 04:24:08;;;;;;;10.35;4.95;;;;;;;12.80;100.00;99153.47;12211825;19;20078;-85
2023/05/10 04:28:10;;;;;;;9.13;5.32;;;;;;;12.82;100.00;99158.72;12212012;19;20033;-85
2023/05/10 04:32:11;;;;;;;11.20;5.65;;;;;;;12.87;100.00;99164.25;12187294;19;20011;-86
2023/05/10 04:36:14;;;;;;;10.63;5.60;;;;;;;12.90;100.00;99163.69;12215379;19;20030;-87
2023/05/10 04:40:17;;;;;;;10.23;6.00;;;;;;;12.88;100.00;99169.50;12215121;19;20263;-87
2023/05/10 04:44:19;;;;;;;8.68;5.78;;;;;;;12.89;100.00;99173.91;12191726;19;20567;-86
2023/05/10 04:48:22;;;;;;;9.30;5.32;;;;;;;12.93;100.00;99183.28;12212942;19;20359;-84
2023/05/10 04:52:23;;;;;;;9.57;5.22;;;;;;;12.94;100.00;99186.91;12192246;19;20111;-82
2023/05/10 05:01:56;;;;;;;11.85;5.82;;;;;;;13.03;100.00;99196.28;12212948;19;20035;-87
2023/05/10 05:06:20;;;;;;;13.18;5.70;;;;;;;13.07;100.00;99199.31;12210512;19;20034;-83
2023/05/10 05:10:22;;;;;;;8.32;4.78;;;;;;;13.04;100.00;99203.47;12186311;19;20418;-83
2023/05/10 05:14:26;;;;;;;8.52;5.30;;;;;;;13.05;100.00;99218.13;12206814;19;20015;-85
2023/05/10 05:18:29;;;;;;;8.30;4.90;;;;;;;13.08;100.00;99215.59;12208726;19;20014;-86
2023/05/10 05:22:31;;;;;;;11.07;5.00;;;;;;;13.12;100.00;99211.19;12187291;19;20139;-85
2023/05/10 05:26:33;;;;;;;7.40;4.57;;;;;;;13.17;100.00;99211.16;12209611;19;19998;-85
2023/05/10 05:30:35;;;;;;;8.45;4.70;;;;;;;13.21;100.00;99215.03;12207477;19;20006;-84
2023/05/10 05:34:37;;;;;;;7.47;4.47;;;;;;;13.26;100.00;99213.38;12188155;19;20404;-85
2023/05/10 05:38:38;;;;;;;13.23;4.95;;;;;;;13.35;100.00;99214.44;12205860;19;20106;-84
2023/05/10 05:42:41;;;;;;;9.30;4.53;;;;;;;13.35;100.00;99225.53;12208763;19;20015;-83
2023/05/10 05:46:42;;;;;;;9.18;4.93;;;;;;;13.44;100.00;99223.81;12185509;19;20014;-84
2023/05/10 05:50:45;;;;;;;7.80;4.85;;;;;;;13.57;100.00;99222.41;12170145;19;20019;-85
2023/05/10 05:54:47;;;;;;;12.40;4.75;;;;;;;13.68;100.00;99235.06;12130964;19;20010;-83
2023/05/10 05:58:49;;;;;;;10.32;4.57;;;;;;;13.86;100.00;99231.66;12189533;19;20015;-83
2023/05/10 06:02:51;;;;;;;6.78;3.80;;;;;;;13.92;100.00;99235.22;12207114;19;20021;-83
2023/05/10 06:06:52;;;;;;;8.10;4.60;;;;;;;13.94;100.00;99238.53;12212560;19;20501;-83
2023/05/10 06:10:54;;;;;;;7.72;3.85;;;;;;;13.97;100.00;99243.50;12188060;19;20010;-82
2023/05/10 06:14:56;;;;;;;8.10;4.70;;;;;;;14.03;100.00;99253.44;12209239;19;20053;-83
2023/05/10 06:18:57;;;;;;;10.50;4.53;;;;;;;14.10;100.00;99262.25;12212716;19;20039;-83
2023/05/10 06:22:59;;;;;;;5.70;3.78;;;;;;;14.30;100.00;99257.69;12189271;19;20034;-83
2023/05/10 06:27:01;;;;;;;7.80;4.63;;;;;;;14.44;100.00;99264.25;12211144;19;20540;-83
2023/05/10 06:31:04;;;;;;;7.07;4.30;;;;;;;14.49;100.00;99264.22;12209994;19;20014;-82
2023/05/10 06:35:06;;;;;;;9.15;5.30;;;;;;;14.61;100.00;99274.16;12192393;19;20376;-82
2023/05/10 06:39:11;;;;;;;7.90;4.57;;;;;;;14.62;100.00;99271.06;12222727;19;20336;-82
2023/05/10 06:43:14;;;;;;;6.10;3.95;;;;;;;14.62;100.00;99270.25;12220665;19;20010;-82
2023/05/10 06:47:15;;;;;;;12.43;5.13;;;;;;;14.70;100.00;99266.84;12195358;19;20412;-82
2023/05/10 06:51:19;;;;;;;10.13;4.75;;;;;;;14.79;100.00;99271.47;12220982;19;20495;-81
2023/05/10 06:55:21;;;;;;;8.88;5.05;;;;;;;14.85;100.00;99265.91;12198954;19;20011;-81
2023/05/10 06:59:23;;;;;;;9.43;5.10;;;;;;;15.00;100.00;99274.88;12222931;19;20017;-82
2023/05/10 07:03:25;;;;;;;10.63;4.57;;;;;;;15.28;100.00;99277.94;12214142;19;20019;-82
2023/05/10 07:07:27;;;;;;;9.77;5.45;;;;;;;15.39;100.00;99276.72;12197677;19;20010;-82
2023/05/10 07:11:29;;;;;;;6.63;4.57;;;;;;;15.40;100.00;99280.31;12220056;19;20011;-81
2023/05/10 07:15:31;;;;;;;9.27;4.95;;;;;;;15.28;100.00;99284.31;12220285;19;20031;-82
2023/05/10 07:19:32;;;;;;;12.05;4.70;;;;;;;15.21;100.00;99283.03;12198273;19;20017;-82
2023/05/10 07:23:34;;;;;;;7.13;4.30;;;;;;;15.30;100.00;99286.81;12218537;19;20026;-81
2023/05/10 07:27:36;;;;;;;8.23;4.47;;;;;;;15.38;100.00;99286.16;12220104;19;20498;-82
2023/05/10 07:31:38;;;;;;;7.90;4.20;;;;;;;15.53;100.00;99290.72;12195185;19;20000;-82
2023/05/10 07:35:40;;;;;;;6.88;4.07;;;;;;;15.61;100.00;99284.50;12222594;19;20011;-82
2023/05/10 07:39:41;;;;;;;5.97;3.80;;;;;;;15.73;100.00;99295.22;12223570;19;20376;-82
2023/05/10 07:43:43;;;;;;;6.88;3.90;;;;;;;15.84;100.00;99293.97;12197697;19;20352;-82
2023/05/10 07:47:45;;;;;;;4.57;3.03;;;;;;;16.09;100.00;99303.94;12216036;19;20011;-81
2023/05/10 07:51:47;;;;;;;5.33;3.17;;;;;;;16.25;100.00;99290.66;12217688;19;20255;-81
2023/05/10 07:55:56;;;;;;;4.67;3.20;;;;;;;16.27;100.00;99299.53;12196214;19;20515;-81
2023/05/10 08:00:00;;;;;;;6.15;3.50;;;;;;;16.29;100.00;99313.09;12220072;19;20518;-80
2023/05/10 08:04:02;;;;;;;5.10;3.30;;;;;;;16.24;100.00;99302.91;12221127;19;20007;-80
2023/05/10 08:08:04;;;;;;;4.00;2.90;;;;;;;16.09;100.00;99312.28;12200878;19;20017;-80
2023/05/10 08:12:06;;;;;;;3.90;2.70;;;;;;;15.85;100.00;99312.28;12217062;19;20018;-80
2023/05/10 08:16:07;;;;;;;5.70;2.90;;;;;;;15.75;100.00;99315.19;12217720;19;20478;-80
2023/05/10 08:20:09;;;;;;;5.57;3.13;;;;;;;15.48;100.00;99308.25;12207798;19;20027;-80
2023/05/10 08:24:11;;;;;;;5.30;3.13;;;;;;;15.18;100.00;99314.13;12218218;19;20388;-80
2023/05/10 08:28:13;;;;;;;4.45;3.13;;;;;;;15.09;100.00;99304.78;12217742;19;20018;-80
2023/05/10 08:32:15;;;;;;;4.10;2.75;;;;;;;15.10;100.00;99321.13;12195474;19;20031;-80
2023/05/10 08:36:21;;;;;;;4.80;2.80;;;;;;;15.11;100.00;99319.19;12219183;19;20011;-79
2023/05/10 08:40:25;;;;;;;4.35;2.63;;;;;;;15.17;100.00;99321.63;12198110;19;20011;-80
2023/05/10 08:44:28;;;;;;;4.07;2.80;;;;;;;15.26;100.00;99330.16;12184033;19;20070;-79
2023/05/10 08:48:34;;;;;;;5.78;3.05;;;;;;;15.40;100.00;99324.72;12218360;19;20029;-80
2023/05/10 08:52:39;;;;;;;6.15;2.78;;;;;;;15.73;100.00;99325.78;12194790;19;20022;-80
2023/05/10 08:56:42;;;;;;;4.38;2.80;;;;;;;15.97;100.00;99322.16;12218126;19;20106;-80
2023/05/10 09:00:44;;;;;;;4.13;2.50;;;;;;;16.29;100.00;99322.28;12217508;19;20353;-80
2023/05/10 09:04:46;;;;;;;4.70;2.80;;;;;;;16.77;100.00;99330.47;12192666;19;20017;-80
2023/05/10 09:08:48;;;;;;;3.63;2.22;;;;;;;17.27;100.00;99335.50;12216007;19;20471;-80
2023/05/10 09:12:51;;;;;;;4.32;2.05;;;;;;;17.75;100.00;99335.97;12217394;19;20030;-80
2023/05/10 09:16:54;;;;;;;2.85;1.65;;;;;;;18.20;100.00;99338.16;12199356;19;20006;-80
2023/05/10 09:20:56;;;;;;;2.58;1.40;;;;;;;18.58;100.00;99333.09;12217658;19;20017;-80
2023/05/10 09:25:11;;;;;;;2.92;1.48;;;;;;;18.66;100.00;99332.38;12215722;19;20035;-81
2023/05/10 09:29:14;;;;;;;7.05;1.40;;;;;;;18.54;100.00;99334.88;12198242;19;20011;-81
2023/05/10 09:33:18;;;;;;;4.75;1.20;;;;;;;17.91;100.00;99335.72;12218786;19;20466;-81
2023/05/10 09:37:29;;;;;;;3.42;0.80;;;;;;;17.32;100.00;99343.78;12197942;19;20010;-80
2023/05/10 09:41:31;;;;;;;2.15;0.95;;;;;;;16.87;100.00;99343.44;12218139;19;20352;-81
2023/05/10 09:45:35;;;;;;;2.22;1.00;;;;;;;16.78;100.00;99346.06;12219094;19;20030;-81
2023/05/10 09:49:41;;;;;;;3.17;1.13;;;;;;;16.67;100.00;99341.75;12198610;19;20022;-80
2023/05/10 09:53:43;;;;;;;4.82;1.02;;;;;;;16.41;100.00;99358.81;12218730;19;20132;-81
2023/05/10 09:57:45;;;;;;;2.75;0.95;;;;;;;16.11;100.00;99356.44;12217122;19;20019;-80
2023/05/10 10:01:52;;;;;;;;;;;;;;;15.87;100.00;99362.00;12194400;19;20006;-80
2023/05/10 10:05:55;;;;;;;3.75;1.10;;;;;;;15.88;100.00;99364.50;12212963;19;20918;-80
2023/05/10 10:10:05;;;;;;;2.13;0.85;;;;;;;15.97;100.00;99367.44;12219529;19;20100;-80
2023/05/10 10:14:12;;;;;;;4.68;2.17;;;;;;;16.00;100.00;99366.03;12205657;19;20033;-80
2023/05/10 10:18:16;;;;;;;4.90;1.05;;;;;;;16.16;100.00;99367.50;12233376;19;20011;-81
2023/05/10 10:22:22;;;;;;;2.30;1.00;;;;;;;16.36;100.00;99370.00;12214470;19;20023;-80
2023/05/10 10:26:24;;;;;;;5.35;1.08;;;;;;;16.60;100.00;99360.78;12231406;19;20509;-80
2023/05/10 10:30:32;;;;;;;;;;;;;;;16.77;100.00;99369.44;12232143;19;20006;-81
2023/05/10 10:34:34;;;;;;;2.22;0.85;;;;;;;17.27;100.00;99372.53;12208949;19;19911;-81
2023/05/10 10:39:00;;;;;;;1.73;1.00;;;;;;;17.81;95.97;99370.16;12236469;19;20015;-82
2023/05/10 10:43:26;;;;;;;4.28;0.98;;;;;;;18.29;86.78;99368.91;12233581;19;20093;-82
2023/05/10 10:47:30;;;;;;;1.23;0.70;;;;;;;18.24;87.24;99374.63;12211449;19;20014;-83
2023/05/10 10:51:32;;;;;;;3.83;0.90;;;;;;;17.81;80.78;99375.75;12228119;19;20011;-83
2023/05/10 10:55:34;;;;;;;2.92;1.52;;;;;;;17.92;85.61;99380.00;12207995;19;19999;-83
2023/05/10 10:59:36;;;;;;;1.90;0.93;;;;;;;18.01;85.91;99374.53;12231104;19;20486;-84
2023/05/10 11:04:14;;;;;;;2.20;0.80;;;;;;;17.69;88.42;99390.16;12223185;19;20022;-83
2023/05/10 11:08:26;;;;;;;3.10;1.05;;;;;;;17.31;89.10;99392.22;12204437;19;20391;-82
2023/05/10 11:12:29;;;;;;;1.50;1.10;;;;;;;16.85;93.98;99392.97;12225723;19;20010;-82
2023/05/10 11:16:44;;;;;;;1.60;1.10;;;;;;;16.59;96.59;99396.09;12208426;19;20007;-82
2023/05/10 11:21:15;;;;;;;2.17;1.00;;;;;;;16.61;97.35;99401.38;12227807;19;20474;-82
2023/05/10 11:25:26;;;;;;;4.25;1.05;;;;;;;16.84;98.21;99392.16;12211519;19;20357;-81
2023/05/10 11:29:28;;;;;;;1.98;1.00;;;;;;;17.35;93.94;99386.91;12227711;19;20015;-81
2023/05/10 11:33:30;;;;;;;1.87;0.90;;;;;;;18.09;90.96;99393.31;12224182;19;20011;-83
2023/05/10 11:37:34;;;;;;;3.20;1.02;;;;;;;18.73;90.47;99400.88;12206498;19;20038;-83
2023/05/10 11:41:35;;;;;;;4.05;0.90;;;;;;;18.92;81.37;99393.22;12227181;19;20536;-82
2023/05/10 11:45:37;;;;;;;2.38;0.70;;;;;;;19.12;78.93;99397.47;12222581;19;20007;-83
2023/05/10 11:49:43;;;;;;;2.50;1.10;;;;;;;19.35;76.62;99389.91;12202913;19;20011;-81
2023/05/10 11:53:45;;;;;;;4.55;0.90;;;;;;;19.69;76.67;99394.94;12214500;19;20039;-83
2023/05/10 11:57:47;;;;;;;1.63;0.83;;;;;;;19.94;75.17;99399.00;12221260;19;20011;-83
2023/05/10 12:01:49;;;;;;;1.50;1.33;;;;;;;20.60;68.14;99395.44;12196927;19;20467;-82
2023/05/10 12:05:51;;;;;;;7.07;0.70;;;;;;;21.02;64.35;99390.19;12218761;19;20773;-82
2023/05/10 12:10:06;;;;;;;1.67;0.60;;;;;;;20.76;62.69;99392.97;12214650;19;20345;-80
2023/05/10 12:14:09;;;;;;;0.93;0.60;;;;;;;20.24;63.07;99400.09;12179599;19;20010;-81
2023/05/10 12:18:13;;;;;;;3.05;1.20;;;;;;;20.32;65.99;99398.47;12217417;19;20014;-82
2023/05/10 12:22:15;;;;;;;2.53;0.98;;;;;;;20.78;63.27;99399.09;12215089;19;20010;-83
2023/05/10 12:26:17;;;;;;;1.73;0.93;;;;;;;20.95;58.13;99390.69;12200233;19;20010;-79
2023/05/10 12:30:23;;;;;;;3.10;1.33;;;;;;;21.53;56.49;99392.13;12232389;19;20006;-81
2023/05/10 12:34:33;;;;;;;4.20;0.77;;;;;;;22.08;54.92;99394.13;12198522;19;20356;-81
2023/05/10 12:38:42;;;;;;;2.65;0.93;;;;;;;21.89;54.24;99402.09;12219833;19;20783;-83
2023/05/10 12:42:44;;;;;;;5.63;1.00;;;;;;;21.96;54.81;99410.00;12218143;19;20021;-82
2023/05/10 12:46:46;;;;;;;2.35;1.00;;;;;;;21.78;55.49;99412.06;12194694;19;20010;-81
2023/05/10 12:50:48;;;;;;;2.10;0.93;;;;;;;21.51;53.56;99413.28;12217863;19;20475;-83
2023/05/10 12:54:50;;;;;;;2.67;0.85;;;;;;;21.20;53.76;99405.03;12219641;19;20010;-81
2023/05/10 12:58:52;;;;;;;2.30;0.90;;;;;;;21.38;54.00;99410.28;12200771;19;20002;-82
2023/05/10 13:02:53;;;;;;;1.97;1.10;;;;;;;21.25;55.09;99404.84;12229117;19;20054;-79
2023/05/10 13:06:58;;;;;;;6.88;1.98;;;;;;;20.71;57.18;99413.56;12237827;19;20019;-83
2023/05/10 13:11:02;;;;;;;1.88;1.08;;;;;;;20.28;58.83;99417.03;12208669;19;20872;-81
2023/05/10 13:15:06;;;;;;;3.72;1.00;;;;;;;19.96;59.37;99407.06;12231113;19;20010;-80
2023/05/10 13:19:08;;;;;;;4.57;1.05;;;;;;;19.59;61.72;99429.50;12234960;19;20010;-82
2023/05/10 13:23:10;;;;;;;4.30;1.13;;;;;;;19.26;63.48;99428.97;12219357;19;20014;-80
2023/05/10 13:27:12;;;;;;;3.00;1.10;;;;;;;19.40;63.54;99419.69;12245405;19;20028;-81
2023/05/10 13:31:13;;;;;;;5.27;0.97;;;;;;;21.18;57.63;99419.38;12243975;19;20082;-81
2023/05/10 13:35:16;;;;;;;4.13;1.15;;;;;;;22.97;47.48;99408.16;12176296;19;20013;-79
2023/05/10 13:39:17;;;;;;;4.33;1.10;;;;;;;23.84;46.76;99400.91;12229358;19;20019;-80
2023/05/10 13:43:19;;;;;;;4.50;1.10;;;;;;;24.80;45.76;99411.75;12204580;19;21261;-83
2023/05/10 13:47:23;;;;;;;5.53;1.10;;;;;;;25.57;43.22;99405.19;12227314;19;20015;-83
2023/05/10 13:51:25;;;;;;;1.83;1.10;;;;;;;25.44;42.32;99402.41;12223248;19;20042;-81
2023/05/10 13:55:28;;;;;;;3.40;1.50;;;;;;;24.94;43.62;99398.09;12204151;19;20082;-83
2023/05/10 13:59:31;;;;;;;3.80;0.90;;;;;;;25.16;42.80;99393.13;12228195;19;20002;-82
2023/05/10 14:03:33;;;;;;;0.77;0.60;;;;;;;25.60;42.84;99385.53;12218820;19;20015;-80
2023/05/10 14:07:35;;;;;;;;;;;;;;;25.64;42.55;99394.06;12202770;19;20087;-79
2023/05/10 14:11:41;;;;;;;2.40;0.95;;;;;;;25.71;43.04;99383.00;12221841;19;19914;-81
2023/05/10 14:15:43;;;;;;;2.13;0.80;;;;;;;25.76;41.29;99382.75;12222716;19;20095;-81
2023/05/10 14:19:44;;;;;;;2.58;1.05;;;;;;;25.94;41.31;99391.72;12203832;19;20502;-81
2023/05/10 14:23:46;;;;;;;2.13;0.90;;;;;;;25.33;41.56;99398.47;12222366;19;20506;-83
2023/05/10 14:27:48;;;;;;;3.97;0.80;;;;;;;24.92;42.33;99399.63;12221981;19;20747;-81
2023/05/10 14:31:50;;;;;;;2.90;0.85;;;;;;;24.34;43.64;99391.34;12197732;19;20026;-81
2023/05/10 14:35:54;;;;;;;3.47;0.90;;;;;;;24.01;44.97;99392.28;12222486;19;20010;-82
2023/05/10 14:39:56;;;;;;;6.82;1.45;;;;;;;23.60;44.19;99396.03;12224417;19;20011;-82
2023/05/10 14:43:58;;;;;;;4.88;1.00;;;;;;;23.18;45.13;99396.09;12197703;19;20014;-84
2023/05/10 14:48:00;;;;;;;4.50;0.80;;;;;;;22.60;47.14;99376.19;12221424;19;20006;-81
2023/05/10 14:52:02;;;;;;;2.78;1.10;;;;;;;22.39;46.33;99378.94;12221561;19;20018;-81
2023/05/10 14:56:06;;;;;;;5.57;1.08;;;;;;;22.14;47.47;99380.72;12209178;19;20010;-80
2023/05/10 15:00:09;;;;;;;;;;;;;;;21.75;47.56;99384.69;12238212;19;20018;-83
2023/05/10 15:04:13;;;;;;;3.63;0.80;;;;;;;21.69;46.78;99381.22;12232617;19;19956;-81
2023/05/10 15:08:15;;;;;;;4.38;0.93;;;;;;;21.73;46.90;99381.38;12215063;19;20038;-83
2023/05/10 15:12:18;;;;;;;6.60;2.40;;;;;;;21.54;47.48;99381.78;12221888;19;20397;-82
2023/05/10 15:16:19;;;;;;;3.78;0.73;;;;;;;21.10;50.67;99379.00;12202718;19;20026;-82
2023/05/10 15:20:21;;;;;;;8.00;1.00;;;;;;;20.78;50.56;99380.31;12223814;19;20648;-82
2023/05/10 15:24:23;;;;;;;2.57;0.90;;;;;;;20.63;51.25;99394.78;12187204;19;20284;-82
2023/05/10 15:28:27;;;;;;;4.00;1.93;;;;;;;20.76;51.55;99384.56;12208471;19;20010;-82
2023/05/10 15:32:29;;;;;;;2.85;1.00;;;;;;;20.84;51.16;99384.59;12225128;19;20077;-82
2023/05/10 15:36:31;;;;;;;3.83;0.80;;;;;;;20.59;49.95;99396.59;12224847;19;20006;-82
2023/05/10 15:40:33;;;;;;;;;;;;;;;20.55;50.48;99398.38;12205744;19;20077;-82
2023/05/10 15:44:38;;;;;;;2.38;0.80;;;;;;;20.47;51.18;99408.41;12221679;19;19931;-82
2023/05/10 15:48:39;;;;;;;2.42;0.80;;;;;;;20.46;51.18;99410.38;12224025;19;20014;-82
2023/05/10 15:52:41;;;;;;;4.35;0.80;;;;;;;20.07;49.91;99405.63;12201927;19;20068;-82
2023/05/10 15:56:43;;;;;;;5.40;0.83;;;;;;;19.97;52.08;99405.91;12225473;19;20502;-81
2023/05/10 16:00:45;;;;;;;3.30;0.80;;;;;;;19.80;51.53;99407.47;12224758;19;20546;-82
2023/05/10 16:04:46;;;;;;;2.10;0.70;;;;;;;19.81;53.05;99408.31;12202400;19;20006;-82
2023/05/10 16:08:50;;;;;;;2.03;0.90;;;;;;;19.84;53.98;99410.47;12223487;19;20472;-82
2023/05/10 16:12:55;;;;;;;2.00;0.70;;;;;;;19.69;54.30;99416.44;12216494;19;20006;-81
2023/05/10 16:16:56;;;;;;;4.03;0.90;;;;;;;19.66;52.88;99419.88;12208834;19;20002;-82
2023/05/10 16:20:59;;;;;;;0.98;0.70;;;;;;;19.73;53.63;99425.84;12223938;19;20035;-83
2023/05/10 16:25:01;;;;;;;;;;;;;;;19.66;54.07;99422.69;12225398;19;20017;-82
2023/05/10 16:29:03;;;;;;;1.23;0.60;;;;;;;19.49;53.13;99420.59;12201928;19;19932;-82
2023/05/10 16:33:04;;;;;;;3.50;0.73;;;;;;;19.53;53.60;99424.38;12218395;19;20030;-82
2023/05/10 16:37:06;;;;;;;1.90;0.77;;;;;;;19.59;53.86;99435.09;12222968;19;20023;-81
2023/05/10 16:41:10;;;;;;;3.00;1.30;;;;;;;19.59;53.52;99429.50;12200000;19;20453;-82
2023/05/10 16:45:12;;;;;;;3.83;1.10;;;;;;;19.52;53.15;99426.34;12227234;19;20018;-82
2023/05/10 16:49:13;;;;;;;1.65;0.80;;;;;;;19.38;52.13;99428.38;12228830;19;20003;-82
2023/05/10 16:53:15;;;;;;;2.10;0.70;;;;;;;19.34;52.25;99424.59;12202545;19;20728;-82
2023/05/10 16:57:18;;;;;;;1.42;0.63;;;;;;;19.22;52.61;99435.50;12226901;19;20037;-82
2023/05/10 17:01:20;;;;;;;2.58;0.82;;;;;;;19.12;53.31;99431.78;12206223;19;20006;-82
2023/05/10 17:05:23;;;;;;;2.20;0.70;;;;;;;19.09;53.14;99429.63;12221941;19;20510;-81
2023/05/10 17:09:25;;;;;;;3.27;1.00;;;;;;;18.92;54.49;99432.31;12226987;19;20475;-79
2023/05/10 17:13:26;;;;;;;1.77;0.68;;;;;;;18.78;53.35;99432.31;12205427;19;20042;-82
2023/05/10 17:17:28;;;;;;;0.53;0.40;;;;;;;18.66;53.49;99426.44;12227101;19;20026;-82
2023/05/10 17:21:30;;;;;;;3.87;0.80;;;;;;;18.52;53.55;99434.00;12234474;19;20067;-82
2023/05/10 17:25:34;;;;;;;1.30;0.60;;;;;;;18.36;54.64;99436.28;12205421;19;20007;-83
2023/05/10 17:29:36;;;;;;;2.90;0.70;;;;;;;18.19;54.94;99437.72;12217049;19;20933;-80
2023/05/10 17:33:38;;;;;;;2.20;0.70;;;;;;;18.06;55.50;99440.53;12211988;19;20417;-82
2023/05/10 17:37:40;;;;;;;0.90;0.60;;;;;;;18.01;56.14;99438.66;12210432;19;20030;-82
2023/05/10 17:41:42;;;;;;;4.20;0.80;;;;;;;17.85;55.76;99438.13;12230891;19;20050;-81
2023/05/10 17:45:46;;;;;;;2.78;0.80;;;;;;;17.72;56.03;99433.28;12231092;19;20010;-81
2023/05/10 17:49:48;;;;;;;1.38;0.60;;;;;;;17.56;56.17;99435.53;12205991;19;20399;-81
2023/05/10 17:53:51;;;;;;;3.17;0.50;;;;;;;17.44;57.29;99444.38;12229177;19;20018;-82
2023/05/10 17:57:53;;;;;;;2.60;0.70;;;;;;;17.36;58.94;99447.03;12228235;19;20011;-82
2023/05/10 18:01:54;;;;;;;1.35;0.82;;;;;;;17.25;58.56;99451.91;12207758;19;20011;-80
2023/05/10 18:05:56;;;;;;;1.30;0.50;;;;;;;17.14;59.17;99451.28;12235294;19;20652;-82
2023/05/10 18:09:59;;;;;;;1.50;0.60;;;;;;;17.03;60.70;99445.03;12228721;19;20015;-81
2023/05/10 18:14:01;;;;;;;1.27;0.70;;;;;;;16.93;62.43;99450.75;12200022;19;20565;-81
2023/05/10 18:18:03;;;;;;;1.42;0.70;;;;;;;16.87;64.18;99454.75;12224576;19;20014;-83
2023/05/10 18:22:08;;;;;;;1.58;0.60;;;;;;;16.71;64.85;99442.94;12225673;19;20011;-83
2023/05/10 18:26:12;;;;;;;2.08;0.95;;;;;;;16.53;66.65;99449.31;12204407;19;20014;-82
2023/05/10 18:30:13;;;;;;;2.65;0.60;;;;;;;16.36;67.06;99450.66;12225156;19;20028;-83
2023/05/10 18:34:15;;;;;;;2.50;0.80;;;;;;;16.21;70.16;99449.97;12233469;19;20007;-82
2023/05/10 18:38:18;;;;;;;1.75;0.90;;;;;;;16.02;71.25;99452.72;12220091;19;20082;-82
2023/05/10 18:42:20;;;;;;;2.22;0.80;;;;;;;15.81;74.55;99457.66;12242855;19;20606;-82
2023/05/10 18:46:21;;;;;;;7.50;1.25;;;;;;;15.59;78.03;99447.00;12224602;19;20094;-82
2023/05/10 18:50:23;;;;;;;6.60;1.55;;;;;;;15.36;80.30;99452.19;12247935;19;20017;-81
2023/05/10 18:54:25;;;;;;;6.88;1.50;;;;;;;15.16;81.54;99457.91;12247277;19;20471;-83
2023/05/10 18:58:28;;;;;;;5.83;1.33;;;;;;;14.98;83.39;99460.25;12224145;19;20015;-82
2023/05/10 19:02:30;;;;;;;2.47;1.15;;;;;;;14.80;85.15;99463.69;12242615;19;20018;-83
2023/05/10 19:06:32;;;;;;;3.27;0.80;;;;;;;14.62;86.33;99467.13;12241772;19;20042;-83
2023/05/10 19:10:34;;;;;;;2.75;0.70;;;;;;;14.46;88.46;99466.34;12214141;19;20007;-81
2023/05/10 19:14:36;;;;;;;3.53;1.20;;;;;;;14.31;89.09;99465.28;12233309;19;20543;-81